Terminal Aerodrome Forecast
Issued by NWS

Home | Current Version | Previous Version | Text Only | Print | Product List | Glossary On
Versions: 1 2 3 4 5 6 7 8 9 10 11 12 13 14 15 16 17 18 19 20 21 22 23 24 25 26 27 28
286
FTUS43 KAPX 242320
TAFTVC
TAF
KTVC 242320Z 2500/2524 06007KT 5SM -DZ BR OVC012
      TEMPO 2500/2502 2SM -RA BR OVC008
     FM250300 08006KT 4SM -DZ BR OVC007
     FM250500 11006KT 3SM -FZDZ OVC005
     FM250700 18006KT 3SM -FZRA OVC004
     FM251100 32010G19KT 2SM -FZRASN OVC004
     FM251300 31011G20KT 1 1/2SM -SN OVC008
     FM251500 31014G24KT 1 1/2SM -SHSN BLSN OVC015=

USA.gov is the U.S. government's official web portal to all federal, state and local government web resources and services.